Time;durP1;ratioP1;P1;durP2;ratioP2;P2;SDS_P1;SDS_P2;PMS_P1;PMS_P2;Temp;Humidity;BMP_temperature;BMP_pressure;BME280_temperature;BME280_humidity;BME280_pressure;Samples;Min_cycle;Max_cycle;Signal;HPM_P1;HPM_P2
2022/04/22 00:02:09;;;;;;;0.98;0.70;;;;;;;21.66;39.08;97485.84;5093694;28;20388;-61
2022/04/22 00:04:34;;;;;;;0.93;0.60;;;;;;;21.65;39.24;97478.72;5111917;28;20043;-61
2022/04/22 00:07:00;;;;;;;1.00;0.70;;;;;;;21.63;39.03;97478.34;5112200;28;20043;-61
2022/04/22 00:09:25;;;;;;;1.63;0.90;;;;;;;21.61;39.03;97480.00;5112129;28;20047;-61
2022/04/22 00:11:50;;;;;;;0.98;0.63;;;;;;;21.63;39.27;97474.78;5111969;28;20478;-61
2022/04/22 00:14:16;;;;;;;1.13;0.68;;;;;;;21.62;39.17;97478.78;5112003;28;20054;-60
2022/04/22 00:16:41;;;;;;;1.75;0.85;;;;;;;21.61;38.93;97475.22;5111621;28;20054;-69
2022/04/22 00:19:07;;;;;;;1.25;0.88;;;;;;;21.62;38.89;97482.34;5112259;28;20044;-69
2022/04/22 00:21:33;;;;;;;1.33;0.80;;;;;;;21.62;38.80;97474.00;5111923;28;20046;-69
2022/04/22 00:23:59;;;;;;;1.20;0.80;;;;;;;21.58;39.39;97470.50;5112041;28;20643;-69
2022/04/22 00:26:24;;;;;;;1.48;0.90;;;;;;;21.58;38.94;97475.28;5111585;28;20048;-69
2022/04/22 00:28:49;;;;;;;1.17;0.82;;;;;;;21.60;39.24;97481.22;5111700;28;20047;-70
2022/04/22 00:31:15;;;;;;;1.50;0.90;;;;;;;21.59;38.95;97479.66;5111922;28;20063;-60
2022/04/22 00:33:41;;;;;;;1.33;0.90;;;;;;;21.59;39.07;97474.09;5111749;28;20093;-61
2022/04/22 00:36:07;;;;;;;1.52;0.90;;;;;;;21.60;39.23;97482.00;5111751;28;20093;-61
2022/04/22 00:38:34;;;;;;;1.92;1.20;;;;;;;21.60;39.11;97475.66;5111724;28;20043;-69
2022/04/22 00:40:59;;;;;;;2.00;1.30;;;;;;;21.60;38.93;97481.22;5111551;28;20048;-69
2022/04/22 00:43:26;;;;;;;3.10;2.00;;;;;;;21.58;39.05;97478.06;5111421;28;20171;-69
2022/04/22 00:45:53;;;;;;;3.65;2.20;;;;;;;21.57;38.58;97468.91;5111430;28;20544;-69
2022/04/22 00:48:21;;;;;;;3.25;2.00;;;;;;;21.58;38.73;97473.28;5111533;28;20043;-69
2022/04/22 00:50:47;;;;;;;3.92;2.05;;;;;;;21.57;38.71;97468.13;5111376;28;20044;-69
2022/04/22 00:53:13;;;;;;;3.25;2.17;;;;;;;21.58;38.83;97469.72;5111343;28;20471;-69
2022/04/22 00:55:42;;;;;;;3.00;1.90;;;;;;;21.59;38.46;97476.88;5111296;28;20040;-69
2022/04/22 00:58:08;;;;;;;3.88;2.30;;;;;;;21.56;38.79;97472.13;5110587;28;20085;-69
2022/04/22 01:00:34;;;;;;;3.58;1.90;;;;;;;21.56;38.87;97470.13;5111229;28;20415;-69
2022/04/22 01:03:00;;;;;;;2.92;1.65;;;;;;;21.55;39.03;97468.56;5111110;28;20039;-62
2022/04/22 01:10:57;;;;;;;3.28;1.88;;;;;;;21.57;38.85;97465.34;5111441;28;20090;-61
2022/04/22 01:13:23;;;;;;;2.47;1.48;;;;;;;21.55;38.49;97462.22;5111318;28;20047;-61
2022/04/22 01:15:48;;;;;;;2.28;1.30;;;;;;;21.55;38.67;97476.13;5111011;28;20490;-60
2022/04/22 01:18:15;;;;;;;2.85;1.70;;;;;;;21.57;38.44;97470.91;5110815;28;20082;-61
2022/04/22 01:20:40;;;;;;;2.40;1.58;;;;;;;21.60;38.11;97470.88;5111114;28;20112;-60
2022/04/22 01:23:06;;;;;;;2.90;1.73;;;;;;;21.62;38.38;97470.44;5110909;28;20441;-61
2022/04/22 01:25:31;;;;;;;3.22;1.70;;;;;;;21.65;38.48;97472.38;5111018;28;20036;-60
2022/04/22 01:27:58;;;;;;;2.92;1.73;;;;;;;21.66;38.13;97471.16;5111125;28;20044;-69
2022/04/22 01:30:24;;;;;;;3.13;1.40;;;;;;;21.66;38.20;97466.38;5106872;28;20090;-69
2022/04/22 01:32:51;;;;;;;2.67;1.60;;;;;;;21.68;38.47;97477.06;5110952;28;20519;-70
2022/04/22 01:35:20;;;;;;;2.45;1.40;;;;;;;21.69;38.17;97470.28;5110738;28;20047;-70
2022/04/22 01:37:46;;;;;;;2.90;1.73;;;;;;;21.70;38.14;97467.06;5110465;28;20071;-70
2022/04/22 01:40:12;;;;;;;2.60;1.58;;;;;;;21.70;38.04;97471.84;5110544;28;20046;-69
2022/04/22 01:42:38;;;;;;;2.55;1.55;;;;;;;21.69;38.23;97467.50;5110435;28;20044;-69
2022/04/22 01:45:05;;;;;;;3.15;1.70;;;;;;;21.71;38.39;97470.63;5110566;28;20525;-70
2022/04/22 01:47:31;;;;;;;1.90;1.20;;;;;;;21.70;38.08;97461.50;5110541;28;20526;-68
2022/04/22 01:49:56;;;;;;;2.75;1.35;;;;;;;21.71;38.10;97467.84;5110420;28;20035;-69
2022/04/22 01:52:23;;;;;;;2.05;1.30;;;;;;;21.70;38.25;97463.50;5110665;28;20051;-61
2022/04/22 01:54:52;;;;;;;2.15;1.30;;;;;;;21.71;38.13;97462.28;5110392;28;20046;-61
2022/04/22 01:57:18;;;;;;;2.38;1.30;;;;;;;21.70;38.25;97469.84;5110365;28;20123;-61
2022/04/22 01:59:46;;;;;;;2.60;1.40;;;;;;;21.73;37.83;97470.22;5110051;28;20050;-61
2022/04/22 02:02:12;;;;;;;2.38;1.42;;;;;;;21.72;38.20;97472.22;5109946;28;20134;-61
2022/04/22 02:04:38;;;;;;;2.03;1.13;;;;;;;21.71;38.01;97467.84;5109424;28;20131;-69
2022/04/22 02:07:03;;;;;;;2.08;1.23;;;;;;;21.72;37.92;97472.22;5110166;28;20515;-69
2022/04/22 02:09:29;;;;;;;1.92;1.20;;;;;;;21.71;38.16;97465.84;5109432;28;20434;-69
2022/04/22 02:11:56;;;;;;;2.42;1.30;;;;;;;21.70;37.87;97463.50;5110329;28;20096;-69
2022/04/22 02:14:22;;;;;;;2.28;1.10;;;;;;;21.70;38.14;97464.28;5110176;28;20052;-69
2022/04/22 02:16:47;;;;;;;1.80;1.10;;;;;;;21.70;37.93;97464.28;5110007;28;20116;-61
2022/04/22 02:19:12;;;;;;;2.55;1.38;;;;;;;21.70;38.06;97457.94;5109998;28;20123;-61
2022/04/22 02:21:38;;;;;;;1.73;1.00;;;;;;;21.69;37.89;97462.72;5110173;28;20044;-61
2022/04/22 02:24:04;;;;;;;1.90;1.10;;;;;;;21.68;38.12;97460.38;5110137;28;20054;-60
2022/04/22 02:28:31;;;;;;;2.08;1.20;;;;;;;21.71;37.98;97462.28;5110012;28;20071;-61
2022/04/22 02:29:15;;;;;;;2.10;1.20;;;;;;;21.72;37.78;97469.44;5109987;28;20454;-60
2022/04/22 02:31:40;;;;;;;1.75;1.08;;;;;;;21.70;38.02;97464.28;5110102;28;20051;-60
2022/04/22 02:34:06;;;;;;;1.83;1.00;;;;;;;21.71;37.99;97465.06;5110063;28;20051;-61
2022/04/22 02:36:31;;;;;;;2.05;1.23;;;;;;;21.72;37.94;97466.66;5109736;28;20500;-61
2022/04/22 02:38:56;;;;;;;1.85;1.00;;;;;;;21.72;38.03;97469.44;5109898;28;20052;-61
2022/04/22 02:46:50;;;;;;;2.35;0.93;;;;;;;21.69;37.87;97470.28;5109887;28;20058;-61
2022/04/22 02:49:15;;;;;;;1.45;0.95;;;;;;;21.69;37.88;97473.06;5109674;28;20048;-60
2022/04/22 02:51:41;;;;;;;2.03;0.90;;;;;;;21.68;38.20;97472.28;5109615;28;20049;-60
2022/04/22 02:54:06;;;;;;;1.33;0.88;;;;;;;21.68;38.10;97477.84;5109657;28;20071;-69
2022/04/22 02:56:32;;;;;;;1.48;0.90;;;;;;;21.69;38.11;97481.41;5095171;28;20039;-68
2022/04/22 02:58:57;;;;;;;1.52;0.85;;;;;;;21.68;38.25;97469.50;5089369;28;20048;-69
2022/04/22 03:01:23;;;;;;;1.40;0.93;;;;;;;21.68;38.19;97471.50;5089372;28;20432;-69
2022/04/22 03:03:48;;;;;;;1.45;0.93;;;;;;;21.67;38.24;97470.72;5089188;28;20052;-69
2022/04/22 03:06:14;;;;;;;2.22;1.20;;;;;;;21.67;37.97;97467.16;5089011;28;20048;-69
2022/04/22 03:08:40;;;;;;;2.05;1.02;;;;;;;21.67;38.28;97467.94;5089290;28;20075;-69
2022/04/22 03:11:05;;;;;;;1.55;1.00;;;;;;;21.68;37.95;97474.28;5085220;28;20048;-69
2022/04/22 03:13:31;;;;;;;1.50;0.90;;;;;;;21.67;38.15;97472.72;5089097;28;20109;-61
2022/04/22 03:15:58;;;;;;;1.50;1.00;;;;;;;21.67;38.18;97475.50;5089092;28;20089;-60
2022/04/22 03:18:23;;;;;;;2.13;1.10;;;;;;;21.68;37.97;97475.06;5089089;28;20039;-69
2022/04/22 03:20:49;;;;;;;1.83;0.90;;;;;;;21.67;38.33;97472.72;5091790;28;20411;-60
2022/04/22 03:23:14;;;;;;;1.65;1.00;;;;;;;21.68;38.36;97475.06;5092613;28;20038;-60
2022/04/22 03:25:41;;;;;;;1.52;0.98;;;;;;;21.66;38.17;97473.94;5092363;28;20132;-61
2022/04/22 03:28:07;;;;;;;2.35;1.27;;;;;;;21.66;38.31;97476.72;5092213;28;20059;-61
2022/04/22 03:30:37;;;;;;;1.52;0.90;;;;;;;21.64;38.48;97470.78;5092045;28;20040;-61
2022/04/22 03:33:03;;;;;;;1.42;0.80;;;;;;;21.65;38.43;97464.03;5092323;28;20047;-69
2022/04/22 03:35:28;;;;;;;2.08;1.20;;;;;;;21.65;38.04;97466.81;5092459;28;20040;-69
2022/04/22 03:37:55;;;;;;;2.13;1.13;;;;;;;21.63;38.43;97464.44;5092231;28;20486;-69
2022/04/22 03:40:21;;;;;;;1.75;0.90;;;;;;;21.65;38.29;97461.25;5091132;28;20048;-70
2022/04/22 03:42:47;;;;;;;1.73;1.02;;;;;;;21.64;38.21;97459.66;5092367;28;20058;-61
2022/04/22 03:45:12;;;;;;;1.58;1.08;;;;;;;21.65;38.10;97461.25;5092215;28;20036;-61
2022/04/22 03:47:38;;;;;;;1.77;1.00;;;;;;;21.63;38.13;97447.75;5092011;28;20098;-61
2022/04/22 03:50:04;;;;;;;1.55;0.95;;;;;;;21.65;38.33;97455.69;5091968;28;20055;-61
2022/04/22 03:52:30;;;;;;;1.00;0.73;;;;;;;21.64;38.05;97457.66;5091968;28;20040;-61
2022/04/22 03:54:55;;;;;;;1.50;1.00;;;;;;;21.63;38.26;97456.09;5091961;28;20048;-61
2022/04/22 04:00:05;;;;;;;1.65;1.00;;;;;;;21.65;38.27;97461.25;5092360;28;20063;-60
2022/04/22 04:02:31;;;;;;;1.23;0.77;;;;;;;21.64;38.21;97460.44;5091868;28;20499;-61
2022/04/22 04:04:56;;;;;;;1.58;0.88;;;;;;;21.62;38.38;97451.75;5091583;28;20052;-61
2022/04/22 04:07:21;;;;;;;1.30;0.90;;;;;;;21.63;38.20;97458.09;5091568;28;20130;-61
2022/04/22 04:17:59;;;;;;;1.15;0.85;;;;;;;21.61;38.28;97455.75;5091283;28;20062;-69
2022/04/22 04:23:14;;;;;;;1.00;0.70;;;;;;;21.61;38.47;97457.75;5091618;28;20121;-69
2022/04/22 04:25:40;;;;;;;1.35;0.90;;;;;;;21.62;38.31;97456.53;5091210;28;20461;-61
2022/04/22 04:28:10;;;;;;;1.67;1.00;;;;;;;21.59;38.28;97449.03;5091531;28;20032;-60
2022/04/22 04:30:42;;;;;;;1.77;1.10;;;;;;;21.60;38.30;97456.16;5091548;28;20040;-60
2022/04/22 04:33:08;;;;;;;2.17;1.10;;;;;;;21.60;38.30;97453.38;5091211;28;20048;-61
2022/04/22 04:35:35;;;;;;;1.65;0.90;;;;;;;21.59;38.29;97454.59;5091367;28;20036;-60
2022/04/22 04:38:01;;;;;;;1.67;1.00;;;;;;;21.59;38.55;97449.81;5091196;28;20491;-61
2022/04/22 04:40:27;;;;;;;1.60;1.02;;;;;;;21.59;38.65;97454.59;5091263;28;20062;-61
2022/04/22 04:42:53;;;;;;;1.85;1.00;;;;;;;21.58;38.47;97451.03;5091258;28;20411;-61
2022/04/22 04:45:19;;;;;;;1.80;1.00;;;;;;;21.59;38.37;97460.16;5091104;28;20040;-61
2022/04/22 04:47:44;;;;;;;1.80;1.05;;;;;;;21.60;38.43;97458.94;5091097;28;20056;-61
2022/04/22 04:50:11;;;;;;;1.70;1.00;;;;;;;21.61;38.60;97461.31;5091027;28;20042;-62
2022/04/22 04:52:37;;;;;;;1.65;1.00;;;;;;;21.59;38.57;97458.16;5091117;28;20044;-69
2022/04/22 04:55:07;;;;;;;1.33;0.77;;;;;;;21.62;38.74;97470.44;5091170;28;20051;-70
2022/04/22 04:57:32;;;;;;;2.17;1.10;;;;;;;21.63;38.78;97474.78;5090752;28;20040;-69
2022/04/22 04:59:58;;;;;;;1.83;1.00;;;;;;;21.64;38.69;97470.78;5090735;28;20157;-69
2022/04/22 05:02:23;;;;;;;1.63;1.00;;;;;;;21.64;38.80;97476.34;5090947;28;20048;-69
2022/04/22 05:04:49;;;;;;;1.50;0.80;;;;;;;21.65;38.43;97472.38;5090737;28;20048;-69
2022/04/22 05:07:14;;;;;;;1.60;0.90;;;;;;;21.65;38.71;97477.94;5090714;28;20048;-69
2022/04/22 05:09:40;;;;;;;1.55;1.00;;;;;;;21.65;38.97;97477.94;5090867;28;20036;-70
2022/04/22 05:12:05;;;;;;;1.40;1.00;;;;;;;21.64;38.82;97473.56;5090777;28;20044;-70
2022/04/22 05:14:31;;;;;;;1.75;1.00;;;;;;;21.66;38.83;97468.38;5090885;28;20039;-70
2022/04/22 05:16:56;;;;;;;1.10;0.80;;;;;;;21.66;38.86;97471.16;5090599;28;20048;-70
2022/04/22 05:19:22;;;;;;;1.60;1.05;;;;;;;21.65;38.50;97475.16;5090511;28;20093;-69
2022/04/22 05:21:49;;;;;;;1.95;1.00;;;;;;;21.71;39.01;97481.78;5090591;28;20501;-61
2022/04/22 05:24:15;;;;;;;1.52;0.75;;;;;;;21.69;38.72;97473.06;5090733;28;20071;-70
2022/04/22 05:26:40;;;;;;;3.60;0.90;;;;;;;21.72;38.67;97480.59;5090488;28;20496;-70
2022/04/22 05:32:36;;;;;;;1.45;0.70;;;;;;;21.71;38.77;97479.00;5090193;28;20040;-70
2022/04/22 05:34:35;;;;;;;1.50;0.88;;;;;;;21.70;39.10;97485.78;5090315;28;20059;-70
2022/04/22 05:37:00;;;;;;;1.35;0.90;;;;;;;21.68;39.17;97483.41;5095771;28;20031;-70
2022/04/22 05:39:25;;;;;;;1.25;0.90;;;;;;;21.68;39.10;97482.63;5110438;28;20126;-70
2022/04/22 05:41:51;;;;;;;2.78;0.70;;;;;;;21.70;39.25;97485.78;5110543;28;20418;-61
2022/04/22 05:44:17;;;;;;;1.20;0.88;;;;;;;21.71;39.07;97495.69;5109662;28;20066;-60
2022/04/22 05:46:42;;;;;;;1.27;0.82;;;;;;;21.69;39.03;97485.00;5110552;28;20043;-61
2022/04/22 05:49:08;;;;;;;1.42;0.80;;;;;;;21.70;38.93;97488.56;5110505;28;20440;-61
2022/04/22 05:51:33;;;;;;;1.42;0.80;;;;;;;21.71;39.09;97493.69;5110365;28;20047;-61
2022/04/22 05:53:58;;;;;;;1.83;0.90;;;;;;;21.71;39.16;97498.47;5110308;28;20050;-61
2022/04/22 05:56:24;;;;;;;1.30;0.80;;;;;;;21.71;38.96;97495.69;5110456;28;20044;-61
2022/04/22 05:58:49;;;;;;;1.70;0.80;;;;;;;21.71;39.16;97499.25;5110510;28;20052;-61
2022/04/22 06:01:15;;;;;;;2.00;0.90;;;;;;;21.71;39.30;97495.69;5110782;28;20528;-60
2022/04/22 06:03:41;;;;;;;1.90;1.00;;;;;;;21.71;39.18;97490.91;5110156;28;20039;-61
2022/04/22 06:06:06;;;;;;;1.58;0.90;;;;;;;21.73;39.19;97498.84;5110218;28;20043;-61
2022/04/22 06:11:15;;;;;;;1.48;0.80;;;;;;;21.72;39.39;97502.84;5110459;28;20101;-60
2022/04/22 06:13:41;;;;;;;1.65;0.90;;;;;;;21.72;39.41;97502.84;5110217;28;20040;-70
2022/04/22 06:16:06;;;;;;;1.70;0.90;;;;;;;21.72;39.08;97502.84;5109976;28;20122;-70
2022/04/22 06:18:32;;;;;;;1.70;0.80;;;;;;;21.73;39.26;97504.41;5110120;28;20044;-70
2022/04/22 06:20:57;;;;;;;1.60;0.98;;;;;;;21.74;39.31;97507.97;5110070;28;20120;-70
2022/04/22 06:23:23;;;;;;;1.52;0.80;;;;;;;21.74;39.17;97507.97;5109802;28;20051;-70
2022/04/22 06:25:49;;;;;;;1.45;0.93;;;;;;;21.73;39.08;97512.75;5110021;28;20461;-70
2022/04/22 06:28:15;;;;;;;1.45;0.98;;;;;;;21.72;39.43;97505.63;5109979;28;20044;-61
2022/04/22 06:30:41;;;;;;;1.48;0.90;;;;;;;21.73;39.07;97501.63;5109947;28;20043;-61
2022/04/22 06:33:07;;;;;;;1.85;0.90;;;;;;;21.73;39.09;97506.41;5110201;28;20052;-61
2022/04/22 06:35:32;;;;;;;1.83;0.98;;;;;;;21.74;39.10;97510.75;5109881;28;20122;-60
2022/04/22 06:38:01;;;;;;;0.93;0.70;;;;;;;21.76;38.98;97506.31;5110079;28;20177;-61
2022/04/22 06:46:12;;;;;;;1.90;1.00;;;;;;;21.75;38.93;97510.31;5046824;28;20520;-60
2022/04/22 06:48:38;;;;;;;1.40;0.90;;;;;;;21.74;39.22;97503.19;5042582;28;20041;-61
2022/04/22 06:51:07;;;;;;;2.03;0.98;;;;;;;21.75;39.01;97510.31;5038791;28;20451;-61
2022/04/22 06:53:33;;;;;;;1.35;0.80;;;;;;;21.75;38.91;97512.31;5036696;28;20079;-62
2022/04/22 06:56:00;;;;;;;1.60;0.93;;;;;;;21.77;38.95;97521.03;5034649;28;20045;-61
2022/04/22 06:58:29;;;;;;;1.30;0.80;;;;;;;21.77;38.99;97512.69;5029044;28;20038;-61
2022/04/22 07:00:54;;;;;;;1.40;0.90;;;;;;;21.77;39.05;97518.25;5034786;28;20136;-60
2022/04/22 07:03:20;;;;;;;1.05;0.80;;;;;;;21.75;39.26;97515.88;5036590;28;20132;-59
2022/04/22 07:05:47;;;;;;;1.38;0.90;;;;;;;21.77;38.99;97513.47;5034236;28;20084;-58
2022/04/22 07:08:14;;;;;;;2.95;0.93;;;;;;;21.75;39.50;97515.88;5041129;28;20045;-60
2022/04/22 07:10:44;;;;;;;1.30;0.90;;;;;;;21.79;39.47;97522.19;5048910;28;20076;-59
2022/04/22 07:13:10;;;;;;;1.33;0.90;;;;;;;21.77;39.48;97519.03;5032558;28;20057;-59
2022/04/22 07:15:37;;;;;;;1.25;0.90;;;;;;;21.78;39.26;97509.47;5024301;28;20157;-59
2022/04/22 07:18:02;;;;;;;1.75;0.93;;;;;;;21.81;39.49;97522.53;5072759;28;20182;-59
2022/04/22 07:20:28;;;;;;;1.33;0.85;;;;;;;21.83;39.57;97520.09;5099297;28;20119;-62
2022/04/22 07:22:54;;;;;;;1.27;0.80;;;;;;;21.81;39.53;97530.88;5111339;28;20052;-63
2022/04/22 07:25:20;;;;;;;1.33;1.00;;;;;;;21.82;39.48;97526.09;5104532;28;20048;-63
2022/04/22 07:27:47;;;;;;;1.58;1.00;;;;;;;21.80;39.33;97523.75;5099992;28;20123;-63
2022/04/22 07:30:17;;;;;;;1.63;0.95;;;;;;;21.82;39.21;97526.09;5103025;28;20501;-63
2022/04/22 07:32:47;;;;;;;1.63;1.05;;;;;;;21.84;39.08;97537.59;5099235;28;20052;-61
2022/04/22 07:35:15;;;;;;;1.40;0.73;;;;;;;21.83;39.11;97534.00;5105225;28;20090;-61
2022/04/22 07:37:41;;;;;;;1.73;0.80;;;;;;;21.87;39.07;97533.97;5101139;28;20066;-63
2022/04/22 07:40:08;;;;;;;1.05;0.75;;;;;;;21.84;39.43;97535.59;5107060;28;20050;-71
2022/04/22 07:42:35;;;;;;;1.63;0.88;;;;;;;21.87;39.25;97523.63;5103749;28;20051;-71
2022/04/22 07:47:50;;;;;;;1.48;1.00;;;;;;;21.88;39.33;97530.75;5103285;28;20063;-62
2022/04/22 07:50:18;;;;;;;1.40;0.80;;;;;;;21.87;39.36;97522.84;5098138;28;20040;-62
2022/04/22 07:52:45;;;;;;;1.25;0.82;;;;;;;21.87;39.32;97518.03;5102681;28;20040;-63
2022/04/22 07:55:13;;;;;;;1.02;0.70;;;;;;;21.91;39.25;97523.53;5100474;28;20052;-64
2022/04/22 07:57:42;;;;;;;1.50;0.98;;;;;;;21.92;39.20;97522.31;5099243;28;20040;-62
2022/04/22 08:00:09;;;;;;;1.45;1.00;;;;;;;21.94;39.17;97525.47;5099579;28;20040;-62
2022/04/22 08:02:34;;;;;;;1.95;1.08;;;;;;;21.94;39.49;97522.69;5101422;28;20048;-62
2022/04/22 08:05:00;;;;;;;1.45;0.90;;;;;;;21.95;39.55;97519.47;5089276;28;20408;-62
2022/04/22 08:07:25;;;;;;;2.28;0.90;;;;;;;21.94;39.49;97525.47;5088625;28;20130;-61
2022/04/22 08:09:51;;;;;;;1.88;0.93;;;;;;;21.95;39.31;97527.81;5105286;28;20055;-62
2022/04/22 08:12:18;;;;;;;3.72;0.90;;;;;;;21.96;39.46;97526.59;5098676;28;20048;-62
2022/04/22 08:14:44;;;;;;;1.10;0.77;;;;;;;21.98;39.30;97518.59;5103729;28;20042;-62
2022/04/22 08:17:10;;;;;;;1.45;0.98;;;;;;;21.98;39.47;97526.16;5109363;28;20039;-62
2022/04/22 08:19:35;;;;;;;1.77;0.90;;;;;;;21.99;39.34;97514.59;5109526;28;20066;-62
2022/04/22 08:22:01;;;;;;;2.17;0.90;;;;;;;22.02;39.53;97512.19;5108496;28;20028;-62
2022/04/22 08:24:26;;;;;;;1.23;0.75;;;;;;;22.03;39.24;97516.53;5106591;28;20385;-63
2022/04/22 08:26:52;;;;;;;1.60;0.98;;;;;;;22.03;39.24;97514.53;5106500;28;20063;-63
2022/04/22 08:29:18;;;;;;;1.60;0.80;;;;;;;22.03;39.39;97508.19;5101602;28;20051;-62
2022/04/22 08:31:44;;;;;;;1.50;0.98;;;;;;;22.02;39.49;97512.97;5105109;28;20039;-63
2022/04/22 08:34:11;;;;;;;1.67;1.10;;;;;;;22.04;39.23;97509.75;5108947;28;20097;-63
2022/04/22 08:36:37;;;;;;;2.03;0.90;;;;;;;22.04;39.65;97510.53;5104150;28;20055;-63
2022/04/22 08:39:04;;;;;;;1.23;0.80;;;;;;;22.07;39.44;97508.88;5109129;28;20118;-65
2022/04/22 08:41:35;;;;;;;1.20;0.70;;;;;;;22.05;39.29;97512.09;5100409;28;20040;-63
2022/04/22 08:44:01;;;;;;;1.08;0.75;;;;;;;22.05;39.46;97503.75;5104657;28;20375;-64
2022/04/22 08:51:59;;;;;;;1.55;0.88;;;;;;;22.08;39.32;97497.38;5109046;28;20185;-64
2022/04/22 08:54:27;;;;;;;1.75;1.02;;;;;;;22.07;39.67;97495.75;5099397;28;20032;-63
2022/04/22 08:56:54;;;;;;;1.40;0.90;;;;;;;22.09;39.55;97495.38;5098720;28;20058;-64
2022/04/22 08:59:19;;;;;;;1.55;0.95;;;;;;;22.10;39.63;97496.94;5094695;28;20044;-63
2022/04/22 09:01:45;;;;;;;1.35;1.00;;;;;;;22.12;39.44;97494.50;5103118;28;20046;-62
2022/04/22 09:04:10;;;;;;;1.95;0.80;;;;;;;22.12;39.52;97488.94;5101702;28;20057;-65
2022/04/22 09:06:36;;;;;;;1.40;0.90;;;;;;;22.13;39.46;97487.72;5083245;28;20164;-68
2022/04/22 09:09:04;;;;;;;1.05;0.80;;;;;;;22.14;39.35;97486.50;5078094;28;20032;-67
2022/04/22 09:11:30;;;;;;;1.52;0.90;;;;;;;22.20;39.56;97491.13;5070733;28;20048;-68
2022/04/22 09:14:00;;;;;;;1.40;0.80;;;;;;;22.23;39.63;97495.06;5069819;28;20040;-64
2022/04/22 09:16:26;;;;;;;1.20;0.80;;;;;;;22.23;39.47;97492.28;5065218;28;20213;-61
2022/04/22 09:18:59;;;;;;;1.73;1.00;;;;;;;22.23;39.14;97486.72;5067619;28;20422;-60
2022/04/22 09:21:25;;;;;;;1.30;0.90;;;;;;;22.22;39.43;97488.72;5075914;28;20042;-60
2022/04/22 09:23:51;;;;;;;1.88;1.10;;;;;;;22.22;39.38;97488.72;5068272;28;20411;-60
2022/04/22 09:26:22;;;;;;;1.85;0.88;;;;;;;22.20;39.20;97484.78;5077120;28;20053;-60
2022/04/22 09:28:58;;;;;;;1.77;0.80;;;;;;;22.21;39.06;97481.56;5073777;28;20401;-60
2022/04/22 09:31:24;;;;;;;1.60;0.90;;;;;;;22.21;38.97;97480.78;5081872;28;20127;-58
2022/04/22 09:33:50;;;;;;;1.40;0.88;;;;;;;22.21;38.98;97475.19;5063780;28;20478;-60
2022/04/22 09:45:09;;;;;;;1.83;0.98;;;;;;;22.24;38.22;97479.94;5079386;28;20063;-61
2022/04/22 09:47:36;;;;;;;2.33;1.00;;;;;;;22.20;38.64;97474.41;5078387;28;20040;-62
2022/04/22 09:50:11;;;;;;;1.23;0.70;;;;;;;22.29;38.42;97464.69;5076947;28;20050;-62
2022/04/22 09:52:39;;;;;;;2.60;0.82;;;;;;;22.28;38.40;97465.91;5076069;28;20075;-62
2022/04/22 09:55:07;;;;;;;2.53;1.08;;;;;;;22.28;38.06;97468.69;5077777;28;20043;-61
2022/04/22 09:57:50;;;;;;;3.30;1.00;;;;;;;22.31;38.09;97465.84;5073977;28;20044;-69
2022/04/22 10:00:16;;;;;;;1.90;1.10;;;;;;;22.30;38.01;97472.63;5078786;28;20047;-61
2022/04/22 10:02:43;;;;;;;2.33;0.93;;;;;;;22.30;37.76;97463.50;5068056;28;20037;-68
2022/04/22 10:05:09;;;;;;;1.85;1.10;;;;;;;22.29;37.88;97464.69;5075371;28;20500;-70
2022/04/22 10:07:36;;;;;;;2.00;1.17;;;;;;;22.28;37.82;97463.13;5075304;28;20040;-69
2022/04/22 10:10:03;;;;;;;1.08;0.77;;;;;;;22.28;37.79;97469.47;5081692;28;20032;-69
2022/04/22 10:12:31;;;;;;;1.40;0.98;;;;;;;22.25;37.57;97465.56;5084562;28;20518;-69
2022/04/22 10:14:58;;;;;;;2.55;0.90;;;;;;;22.27;37.82;97462.34;5084262;28;20094;-69
2022/04/22 10:17:23;;;;;;;1.90;1.10;;;;;;;22.25;37.47;97459.22;5082016;28;20044;-67
2022/04/22 10:19:49;;;;;;;2.38;1.10;;;;;;;22.27;37.55;97456.00;5069505;28;20131;-68
2022/04/22 10:22:17;;;;;;;1.50;0.82;;;;;;;22.27;37.50;97451.19;5084103;28;20457;-69
2022/04/22 10:24:43;;;;;;;2.45;0.90;;;;;;;22.27;37.69;97453.97;5082754;28;20135;-68
2022/04/22 10:27:10;;;;;;;4.07;1.10;;;;;;;22.28;37.54;97449.97;5079621;28;20131;-68
2022/04/22 10:29:39;;;;;;;1.80;1.10;;;;;;;22.27;37.53;97445.63;5084641;28;20086;-69
2022/04/22 10:32:05;;;;;;;1.92;1.00;;;;;;;22.29;37.55;97450.75;5083300;28;20040;-69
2022/04/22 10:34:42;;;;;;;1.60;0.90;;;;;;;22.31;37.27;97457.50;5084931;28;20048;-62
2022/04/22 10:37:41;;;;;;;1.33;0.90;;;;;;;22.31;37.34;97445.56;5084365;28;20135;-61
2022/04/22 10:40:18;;;;;;;1.50;0.98;;;;;;;22.34;37.57;97448.25;5031048;28;20457;-69
2022/04/22 10:42:43;;;;;;;2.60;0.98;;;;;;;22.37;37.31;97432.69;5089313;28;20036;-61
2022/04/22 10:47:55;;;;;;;1.73;1.00;;;;;;;22.37;37.44;97441.06;5088705;28;20537;-61
2022/04/22 10:50:30;;;;;;;1.30;0.80;;;;;;;22.36;37.33;97431.09;5083032;28;20036;-62
2022/04/22 10:53:03;;;;;;;1.60;0.90;;;;;;;22.34;37.38;97423.19;5086899;28;20052;-62
2022/04/22 10:55:35;;;;;;;1.13;0.80;;;;;;;22.35;37.34;97421.19;5083964;28;20048;-62
2022/04/22 10:58:12;;;;;;;1.95;0.95;;;;;;;22.35;37.27;97415.63;5080707;28;20181;-62
2022/04/22 11:00:49;;;;;;;1.83;1.00;;;;;;;22.35;36.92;97416.41;5084025;28;20046;-62
2022/04/22 11:03:23;;;;;;;1.48;0.90;;;;;;;22.35;36.94;97410.81;5088354;28;20520;-62
2022/04/22 11:05:55;;;;;;;1.40;0.90;;;;;;;22.35;36.72;97413.59;5085424;28;20048;-62
2022/04/22 11:08:25;;;;;;;1.77;0.80;;;;;;;22.38;36.55;97414.75;5067343;28;20040;-62
2022/04/22 11:10:51;;;;;;;1.42;0.80;;;;;;;22.37;36.25;97405.63;5077738;28;20052;-62
2022/04/22 11:13:31;;;;;;;0.98;0.70;;;;;;;22.39;36.21;97405.97;5066413;28;20036;-67
2022/04/22 11:16:22;;;;;;;1.25;0.80;;;;;;;22.38;36.34;97396.03;5075348;28;20040;-67
2022/04/22 11:19:19;;;;;;;1.20;0.80;;;;;;;22.38;36.33;97393.25;5061173;28;20091;-67
2022/04/22 11:21:55;;;;;;;1.75;1.00;;;;;;;22.38;36.11;97390.47;5061104;28;20052;-66
2022/04/22 11:24:31;;;;;;;1.40;0.88;;;;;;;22.39;36.06;97380.91;5076804;28;20072;-67
2022/04/22 11:27:11;;;;;;;2.33;0.70;;;;;;;22.40;35.95;97384.47;5081749;28;20411;-67
2022/04/22 11:29:38;;;;;;;1.23;0.80;;;;;;;22.39;35.67;97368.97;5082023;28;20419;-67
2022/04/22 11:32:17;;;;;;;2.30;0.90;;;;;;;22.41;35.59;97370.09;5088238;28;20126;-68
2022/04/22 11:35:04;;;;;;;1.10;0.80;;;;;;;22.42;35.85;97371.66;5084579;28;20040;-67
2022/04/22 11:37:30;;;;;;;0.90;0.60;;;;;;;22.41;35.83;97367.31;5079487;28;20041;-67
2022/04/22 11:39:55;;;;;;;0.82;0.60;;;;;;;22.47;35.81;97375.94;5072785;28;20082;-66
2022/04/22 11:42:22;;;;;;;3.40;1.00;;;;;;;22.47;35.96;97360.00;5085558;28;20562;-66
2022/04/22 11:45:04;;;;;;;0.93;0.63;;;;;;;22.49;35.83;97368.69;5083266;28;20123;-66
2022/04/22 11:47:31;;;;;;;1.38;0.80;;;;;;;22.51;35.61;97368.28;5068825;28;20105;-59
2022/04/22 11:49:56;;;;;;;3.47;0.93;;;;;;;22.55;35.77;97363.41;5077729;28;20507;-59
2022/04/22 11:52:23;;;;;;;0.90;0.63;;;;;;;22.57;35.64;97363.72;5083396;28;20105;-58
2022/04/22 11:54:51;;;;;;;1.10;0.70;;;;;;;22.59;35.71;97354.97;5079788;28;20127;-58
2022/04/22 11:57:17;;;;;;;0.98;0.63;;;;;;;22.60;35.49;97362.88;5081563;28;20041;-59
2022/04/22 12:05:31;;;;;;;1.20;0.80;;;;;;;22.62;35.70;97351.28;5088780;28;20157;-58
2022/04/22 12:05:34;;;;;;;1.00;0.70;;;;;;;22.65;35.57;97348.41;5077899;28;20060;-60
2022/04/22 12:08:05;;;;;;;1.58;0.80;;;;;;;22.69;36.20;97342.75;5058644;28;20067;-60
2022/04/22 12:10:33;;;;;;;1.23;0.80;;;;;;;22.69;36.23;97335.16;5087745;28;20747;-58
2022/04/22 12:13:01;;;;;;;1.60;0.80;;;;;;;22.73;35.96;97337.88;5084235;28;20432;-58
2022/04/22 12:15:27;;;;;;;1.88;0.80;;;;;;;22.74;35.89;97339.44;5072415;28;20137;-58
2022/04/22 12:17:52;;;;;;;1.52;0.80;;;;;;;22.73;35.92;97341.44;5084499;28;20040;-57
2022/04/22 12:20:18;;;;;;;1.58;0.80;;;;;;;22.75;35.77;97341.00;5076166;28;20059;-61
2022/04/22 12:22:44;;;;;;;4.43;0.90;;;;;;;22.71;36.15;97332.72;5079285;28;20161;-62
2022/04/22 12:25:16;;;;;;;2.22;0.93;;;;;;;22.72;35.98;97347.47;5072824;28;20131;-61
2022/04/22 12:27:43;;;;;;;1.92;1.02;;;;;;;22.71;36.06;97334.72;5068589;28;20045;-61
2022/04/22 12:30:14;;;;;;;4.70;1.33;;;;;;;22.70;36.00;97349.88;5067108;28;20051;-62
2022/04/22 12:32:40;;;;;;;2.72;1.15;;;;;;;22.70;35.89;97344.31;5075352;28;20067;-62
2022/04/22 12:35:13;;;;;;;2.97;1.20;;;;;;;22.69;35.94;97345.53;5072528;28;20142;-64